createdAt,value
2023-05-11T00:02:13.708Z,100531.78
2023-05-11T00:05:16.401Z,100527.19
2023-05-11T00:08:20.137Z,100527.25
2023-05-11T00:11:23.759Z,100521.56
2023-05-11T00:14:26.874Z,100536.69
2023-05-11T00:17:29.290Z,100523.47
2023-05-11T00:20:31.652Z,100527.06
2023-05-11T00:23:33.900Z,100531.50
2023-05-11T00:26:36.217Z,100519.81
2023-05-11T00:29:38.481Z,100525.88
2023-05-11T00:32:41.051Z,100520.78
2023-05-11T00:35:43.906Z,100521.09
2023-05-11T00:38:46.549Z,100518.81
2023-05-11T00:41:48.903Z,100515.31
2023-05-11T00:44:51.609Z,100510.50
2023-05-11T00:47:53.958Z,100524.13
2023-05-11T00:50:56.482Z,100517.16
2023-05-11T00:53:59.877Z,100512.75
2023-05-11T00:57:02.839Z,100514.13
2023-05-11T01:00:07.231Z,100508.53
2023-05-11T01:03:09.765Z,100517.75
2023-05-11T01:06:39.960Z,100513.03
2023-05-11T01:09:52.495Z,100513.72
2023-05-11T01:12:59.266Z,100519.78
2023-05-11T01:16:09.298Z,100519.78
2023-05-11T01:19:20.709Z,100514.56
2023-05-11T01:22:29.055Z,100517.53
2023-05-11T01:25:38.565Z,100518.41
2023-05-11T01:28:50.492Z,100518.19
2023-05-11T01:31:55.748Z,100516.03
2023-05-11T01:35:12.247Z,100512.00
2023-05-11T01:38:17.551Z,100514.59
2023-05-11T01:41:22.508Z,100511.41
2023-05-11T01:44:28.085Z,100518.66
2023-05-11T01:47:32.050Z,100518.88
2023-05-11T01:50:36.709Z,100501.31
2023-05-11T01:53:41.185Z,100510.94
2023-05-11T01:56:44.423Z,100500.34
2023-05-11T01:59:49.174Z,100503.22
2023-05-11T02:02:54.039Z,100505.22
2023-05-11T02:05:57.605Z,100507.94
2023-05-11T02:09:01.832Z,100503.31
2023-05-11T02:12:05.491Z,100503.31
2023-05-11T02:15:11.539Z,100501.59
2023-05-11T02:18:15.869Z,100505.03
2023-05-11T02:21:20.176Z,100495.81
2023-05-11T02:24:24.540Z,100502.59
2023-05-11T02:27:26.932Z,100500.63
2023-05-11T02:30:32.605Z,100504.06
2023-05-11T02:33:38.524Z,100486.91
2023-05-11T02:36:42.579Z,100490.13
2023-05-11T02:39:48.393Z,100490.56
2023-05-11T02:42:57.051Z,100499.13
2023-05-11T02:46:03.924Z,100486.19
2023-05-11T02:49:10.438Z,100483.56
2023-05-11T02:52:15.241Z,100484.84
2023-05-11T02:55:22.889Z,100485.78
2023-05-11T02:58:25.788Z,100481.97
2023-05-11T03:01:39.056Z,100482.53
2023-05-11T03:04:41.516Z,100476.03
2023-05-11T03:07:44.102Z,100481.59
2023-05-11T03:10:46.995Z,100489.22
2023-05-11T03:13:50.452Z,100492.53
2023-05-11T03:16:56.554Z,100480.19
2023-05-11T03:20:03.475Z,100481.75
2023-05-11T03:23:07.613Z,100489.91
2023-05-11T03:26:12.193Z,100488.53
2023-05-11T03:29:17.010Z,100492.53
2023-05-11T03:32:19.622Z,100494.25
2023-05-11T03:35:27.491Z,100489.28
2023-05-11T03:38:31.275Z,100490.81
2023-05-11T03:41:36.681Z,100491.56
2023-05-11T03:44:40.672Z,100500.41
2023-05-11T03:47:44.195Z,100502.84
2023-05-11T03:50:47.681Z,100496.53
2023-05-11T03:53:50.917Z,100505.50
2023-05-11T03:56:53.392Z,100510.19
2023-05-11T03:59:55.647Z,100503.34
2023-05-11T04:02:58.186Z,100510.78
2023-05-11T04:06:00.595Z,100512.56
2023-05-11T04:09:02.938Z,100513.63
2023-05-11T04:12:07.529Z,100512.41
2023-05-11T04:15:10.148Z,100509.38
2023-05-11T04:18:12.994Z,100501.31
2023-05-11T04:21:15.436Z,100519.16
2023-05-11T04:24:17.695Z,100519.09
2023-05-11T04:27:21.137Z,100515.16
2023-05-11T04:30:23.671Z,100529.66
2023-05-11T04:33:26.162Z,100525.97
2023-05-11T04:36:30.132Z,100534.75
2023-05-11T04:39:32.649Z,100538.63
2023-05-11T04:42:35.250Z,100537.00
2023-05-11T04:45:39.981Z,100543.75
2023-05-11T04:48:42.516Z,100541.09
2023-05-11T04:51:45.198Z,100539.97
2023-05-11T04:54:47.560Z,100536.94
2023-05-11T04:57:49.814Z,100541.84
2023-05-11T05:00:52.242Z,100544.31
2023-05-11T05:03:54.752Z,100542.16
2023-05-11T05:06:57.112Z,100544.59
2023-05-11T05:09:59.374Z,100544.41
2023-05-11T05:13:01.748Z,100545.59
2023-05-11T05:16:05.920Z,100545.59
2023-05-11T05:19:09.971Z,100540.81
2023-05-11T05:22:12.337Z,100543.28
2023-05-11T05:25:14.657Z,100537.06
2023-05-11T05:28:17.633Z,100535.72
2023-05-11T05:31:21.297Z,100555.91
2023-05-11T05:34:24.576Z,100554.66
2023-05-11T05:37:26.964Z,100558.19
2023-05-11T05:40:32.695Z,100541.97
2023-05-11T05:43:35.970Z,100548.44
2023-05-11T05:46:38.460Z,100562.78
2023-05-11T05:49:41.406Z,100554.69
2023-05-11T05:52:43.806Z,100562.13
2023-05-11T05:55:46.949Z,100553.84
2023-05-11T05:58:49.575Z,100558.91
2023-05-11T06:01:52.003Z,100567.25
2023-05-11T06:04:55.626Z,100550.28
2023-05-11T06:08:10.106Z,100562.75
2023-05-11T06:11:14.637Z,100554.75
2023-05-11T06:14:18.129Z,100555.34
2023-05-11T06:17:22.173Z,100567.81
2023-05-11T06:20:27.627Z,100563.84
2023-05-11T06:23:31.428Z,100563.53
2023-05-11T06:26:34.619Z,100569.44
2023-05-11T06:29:37.266Z,100569.78
2023-05-11T06:32:40.163Z,100557.09
2023-05-11T06:35:43.046Z,100567.25
2023-05-11T06:38:48.165Z,100572.84
2023-05-11T06:41:55.061Z,100577.88
2023-05-11T06:44:58.410Z,100580.50
2023-05-11T06:48:00.729Z,100568.44
2023-05-11T06:51:03.084Z,100570.56
2023-05-11T06:54:06.640Z,100560.75
2023-05-11T06:57:14.285Z,100562.31
2023-05-11T07:00:18.145Z,100578.72
2023-05-11T07:03:23.859Z,100569.78
2023-05-11T07:06:27.360Z,100562.81
2023-05-11T07:09:29.900Z,100563.38
2023-05-11T07:12:32.399Z,100568.00
2023-05-11T07:15:34.839Z,100552.16
2023-05-11T07:18:37.814Z,100556.47
2023-05-11T07:21:40.206Z,100561.09
2023-05-11T07:24:42.716Z,100565.88
2023-05-11T07:27:44.995Z,100561.53
2023-05-11T07:30:47.447Z,100553.53
2023-05-11T07:33:49.843Z,100559.13
2023-05-11T07:36:52.094Z,100549.69
2023-05-11T07:39:58.806Z,100552.91
2023-05-11T07:43:01.184Z,100552.91
2023-05-11T07:46:03.570Z,100558.91
2023-05-11T07:49:15.724Z,100545.25
2023-05-11T07:52:23.008Z,100551.34
2023-05-11T07:55:25.277Z,100550.34
2023-05-11T07:58:27.770Z,100553.16
2023-05-11T08:01:30.379Z,100551.13
2023-05-11T08:04:32.867Z,100546.41
2023-05-11T08:07:35.673Z,100553.53
2023-05-11T08:10:38.508Z,100545.06
2023-05-11T08:13:40.869Z,100545.66
2023-05-11T08:16:43.558Z,100544.94
2023-05-11T08:19:46.088Z,100539.84
2023-05-11T08:22:49.011Z,100528.22
2023-05-11T08:25:55.874Z,100535.47
2023-05-11T08:28:58.378Z,100537.56
2023-05-11T08:32:01.236Z,100531.47
2023-05-11T08:35:04.583Z,100510.91
2023-05-11T08:38:11.457Z,100524.59
2023-05-11T08:41:13.944Z,100507.66
2023-05-11T08:44:17.865Z,100517.31
2023-05-11T08:47:22.776Z,100504.53
2023-05-11T08:50:26.619Z,100516.22
2023-05-11T08:53:29.361Z,100496.41
2023-05-11T08:56:32.768Z,100505.72
2023-05-11T08:59:36.104Z,100495.75
2023-05-11T09:02:38.569Z,100473.53
2023-05-11T09:05:43.325Z,100468.34
2023-05-11T09:08:46.914Z,100483.91
2023-05-11T09:11:50.000Z,100477.03
2023-05-11T09:14:53.147Z,100492.31
2023-05-11T09:17:55.786Z,100478.31
2023-05-11T09:21:01.465Z,100490.75
2023-05-11T09:24:04.233Z,100484.69
2023-05-11T09:27:09.276Z,100472.22
2023-05-11T09:33:26.140Z,100466.41
2023-05-11T09:36:30.253Z,100455.63
2023-05-11T09:39:44.633Z,100469.53
2023-05-11T09:43:01.053Z,100474.75
2023-05-11T09:46:07.570Z,100468.50
2023-05-11T09:49:11.806Z,100463.31
2023-05-11T09:52:18.703Z,100445.22
2023-05-11T09:55:21.190Z,100447.63
2023-05-11T09:58:24.048Z,100457.09
2023-05-11T10:01:34.328Z,100453.34
2023-05-11T10:04:36.773Z,100437.41
2023-05-11T10:07:39.649Z,100448.59
2023-05-11T10:10:42.796Z,100447.56
2023-05-11T10:13:46.049Z,100456.25
2023-05-11T10:16:48.449Z,100422.81
2023-05-11T10:19:52.008Z,100436.13
2023-05-11T10:23:04.070Z,100434.06
2023-05-11T10:26:10.703Z,100408.47
2023-05-11T10:29:15.601Z,100424.31
2023-05-11T10:32:19.830Z,100422.22
2023-05-11T10:35:22.268Z,100423.13
2023-05-11T10:38:25.542Z,100419.22
2023-05-11T10:41:34.148Z,100421.38
2023-05-11T10:45:26.689Z,100418.31
2023-05-11T10:48:29.297Z,100426.63
2023-05-11T10:52:10.398Z,100408.34
2023-05-11T10:55:47.231Z,100412.94
2023-05-11T10:58:58.653Z,100415.13
2023-05-11T11:02:01.951Z,100416.00
2023-05-11T11:05:07.794Z,100381.47
2023-05-11T11:08:10.312Z,100380.38
2023-05-11T11:11:32.122Z,100387.63
2023-05-11T11:14:58.655Z,100388.50
2023-05-11T11:18:29.981Z,100387.22
2023-05-11T11:21:45.554Z,100388.97
2023-05-11T11:24:48.418Z,100363.66
2023-05-11T11:27:52.423Z,100378.16
2023-05-11T11:31:30.054Z,100379.53
2023-05-11T11:34:34.462Z,100382.44
2023-05-11T11:38:03.168Z,100382.44
2023-05-11T11:41:09.457Z,100390.97
2023-05-11T11:44:22.183Z,100369.41
2023-05-11T11:47:26.989Z,100373.97
2023-05-11T11:50:29.555Z,100370.38
2023-05-11T11:53:38.100Z,100364.28
2023-05-11T11:56:41.378Z,100374.97
2023-05-11T11:59:49.895Z,100358.94
2023-05-11T12:02:53.540Z,100385.53
2023-05-11T12:06:00.738Z,100371.19
2023-05-11T12:09:04.973Z,100366.78
2023-05-11T12:12:07.591Z,100362.25
2023-05-11T12:15:25.669Z,100347.94
2023-05-11T12:18:28.000Z,100351.31
2023-05-11T12:21:32.342Z,100358.91
2023-05-11T12:24:34.859Z,100357.47
2023-05-11T12:27:55.305Z,100349.56
2023-05-11T12:30:59.926Z,100350.53
2023-05-11T12:34:03.078Z,100355.13
2023-05-11T12:37:06.760Z,100354.09
2023-05-11T12:40:12.731Z,100350.28
2023-05-11T12:43:19.764Z,100328.41
2023-05-11T12:46:23.343Z,100345.63
2023-05-11T12:49:27.761Z,100340.09
2023-05-11T12:52:30.198Z,100323.31
2023-05-11T12:55:32.554Z,100318.19
2023-05-11T12:58:39.389Z,100318.72
2023-05-11T13:01:41.774Z,100324.19
2023-05-11T13:04:45.720Z,100319.28
2023-05-11T13:07:48.755Z,100305.88
2023-05-11T13:10:58.551Z,100304.66
2023-05-11T13:14:18.764Z,100309.94
2023-05-11T13:17:35.820Z,100312.75
2023-05-11T13:20:38.518Z,100310.19
2023-05-11T13:23:41.009Z,100288.22
2023-05-11T13:26:43.676Z,100276.44
2023-05-11T13:29:46.057Z,100298.63
2023-05-11T13:32:49.618Z,100280.41
2023-05-11T13:35:52.102Z,100273.75
2023-05-11T13:38:54.373Z,100271.00
2023-05-11T13:41:56.739Z,100283.22
2023-05-11T13:44:59.367Z,100269.38
2023-05-11T13:48:06.636Z,100241.22
2023-05-11T13:51:09.968Z,100264.28
2023-05-11T13:54:13.285Z,100278.97
2023-05-11T13:57:15.810Z,100261.47
2023-05-11T14:00:19.643Z,100255.19
2023-05-11T14:03:25.082Z,100258.00
2023-05-11T14:06:27.510Z,100261.22
2023-05-11T14:09:30.874Z,100254.88
2023-05-11T14:12:33.085Z,100238.75
2023-05-11T14:15:37.431Z,100256.84
2023-05-11T14:18:43.589Z,100251.94
2023-05-11T14:21:46.078Z,100248.69
2023-05-11T14:24:48.409Z,100247.94
2023-05-11T14:27:54.498Z,100245.00
2023-05-11T14:30:57.222Z,100245.88
2023-05-11T14:33:59.555Z,100245.25
2023-05-11T14:37:02.121Z,100233.94
2023-05-11T14:40:05.047Z,100239.75
2023-05-11T14:43:07.775Z,100235.88
2023-05-11T14:46:10.150Z,100223.50
2023-05-11T14:49:12.612Z,100229.63
2023-05-11T14:52:15.168Z,100226.44
2023-05-11T14:55:17.848Z,100225.44
2023-05-11T14:58:20.388Z,100235.91
2023-05-11T15:01:22.975Z,100230.81
2023-05-11T15:04:25.851Z,100232.00
2023-05-11T15:07:28.684Z,100241.88
2023-05-11T15:10:31.037Z,100231.94
2023-05-11T15:13:33.337Z,100229.09
2023-05-11T15:16:35.831Z,100243.38
2023-05-11T15:19:38.144Z,100235.09
2023-05-11T15:22:40.434Z,100241.81
2023-05-11T15:25:42.821Z,100235.25
2023-05-11T15:28:45.580Z,100238.16
2023-05-11T15:31:48.019Z,100249.69
2023-05-11T15:34:59.424Z,100243.13
2023-05-11T15:38:05.739Z,100240.50
2023-05-11T15:41:08.013Z,100231.81
2023-05-11T15:44:10.558Z,100246.44
2023-05-11T15:47:12.879Z,100236.50
2023-05-11T15:50:15.134Z,100241.78
2023-05-11T15:53:18.160Z,100247.22
2023-05-11T15:56:20.742Z,100252.91
2023-05-11T15:59:23.064Z,100248.09
2023-05-11T16:02:25.582Z,100249.00
2023-05-11T16:05:29.018Z,100251.34
2023-05-11T16:08:31.364Z,100252.47
2023-05-11T16:11:33.645Z,100247.97
2023-05-11T16:14:36.207Z,100244.75
2023-05-11T16:17:38.690Z,100253.00
2023-05-11T16:20:41.099Z,100260.41
2023-05-11T16:23:43.380Z,100258.38
2023-05-11T16:26:45.686Z,100263.09
2023-05-11T16:29:50.651Z,100259.66
2023-05-11T16:32:53.973Z,100270.34
2023-05-11T16:35:56.496Z,100268.53
2023-05-11T16:39:00.893Z,100277.38
2023-05-11T16:42:03.337Z,100274.34
2023-05-11T16:45:06.631Z,100276.56
2023-05-11T16:48:08.838Z,100278.59
2023-05-11T16:51:11.105Z,100272.03
2023-05-11T16:54:13.727Z,100293.41
2023-05-11T16:57:16.187Z,100271.69
2023-05-11T17:00:19.129Z,100295.06
2023-05-11T17:03:21.715Z,100284.19
2023-05-11T17:06:24.908Z,100285.19
2023-05-11T17:09:28.058Z,100285.84
2023-05-11T17:12:31.950Z,100289.72
2023-05-11T17:15:34.366Z,100273.50
2023-05-11T17:18:36.727Z,100290.69
2023-05-11T17:21:39.088Z,100293.34
2023-05-11T17:24:41.427Z,100303.06
2023-05-11T17:27:43.802Z,100305.84
2023-05-11T17:30:49.171Z,100304.38
2023-05-11T17:33:51.837Z,100310.53
2023-05-11T17:36:54.698Z,100309.22
2023-05-11T17:39:56.977Z,100316.88
2023-05-11T17:42:59.483Z,100336.56
2023-05-11T17:46:04.076Z,100330.81
2023-05-11T17:49:08.062Z,100335.06
2023-05-11T17:52:10.449Z,100326.47
2023-05-11T17:55:13.491Z,100324.06
2023-05-11T17:58:15.801Z,100325.16
2023-05-11T18:01:18.215Z,100324.81
2023-05-11T18:04:20.602Z,100334.22
2023-05-11T18:07:22.916Z,100345.81
2023-05-11T18:10:25.447Z,100347.53
2023-05-11T18:13:28.823Z,100361.53
2023-05-11T18:16:31.271Z,100349.75
2023-05-11T18:19:34.127Z,100351.66
2023-05-11T18:22:37.162Z,100358.47
2023-05-11T18:25:39.903Z,100366.47
2023-05-11T18:28:42.685Z,100377.91
2023-05-11T18:31:45.043Z,100393.91
2023-05-11T18:34:50.054Z,100391.16
2023-05-11T18:37:52.371Z,100404.59
2023-05-11T18:40:56.278Z,100396.00
2023-05-11T18:43:58.896Z,100405.81
2023-05-11T18:47:01.844Z,100412.25
2023-05-11T18:50:04.459Z,100419.56
2023-05-11T18:53:06.838Z,100421.75
2023-05-11T18:56:11.055Z,100428.72
2023-05-11T18:59:13.298Z,100432.03
2023-05-11T19:02:15.617Z,100427.94
2023-05-11T19:05:17.900Z,100427.28
2023-05-11T19:08:20.181Z,100435.97
2023-05-11T19:11:22.908Z,100446.03
2023-05-11T19:14:25.218Z,100453.19
2023-05-11T19:17:27.532Z,100457.22
2023-05-11T19:20:29.893Z,100462.25
2023-05-11T19:23:33.051Z,100463.16
2023-05-11T19:26:36.138Z,100463.63
2023-05-11T19:29:38.437Z,100463.22
2023-05-11T19:32:42.346Z,100471.91
2023-05-11T19:35:46.063Z,100475.25
2023-05-11T19:38:50.418Z,100481.06
2023-05-11T19:41:54.096Z,100474.75
2023-05-11T19:44:56.383Z,100480.47
2023-05-11T19:48:00.233Z,100467.69
2023-05-11T19:51:02.584Z,100471.69
2023-05-11T19:54:05.099Z,100487.81
2023-05-11T19:57:09.185Z,100479.97
2023-05-11T20:00:11.853Z,100484.41
2023-05-11T20:03:16.979Z,100483.59
2023-05-11T20:06:19.538Z,100483.81
2023-05-11T20:09:21.868Z,100481.94
2023-05-11T20:12:24.114Z,100479.09
2023-05-11T20:15:26.592Z,100486.28
2023-05-11T20:18:29.114Z,100470.47
2023-05-11T20:21:32.154Z,100491.56
2023-05-11T20:24:34.381Z,100476.13
2023-05-11T20:27:36.673Z,100479.97
2023-05-11T20:30:38.903Z,100498.28
2023-05-11T20:36:53.633Z,100479.47
2023-05-11T20:39:56.056Z,100496.84
2023-05-11T20:42:58.362Z,100498.38
2023-05-11T20:46:04.847Z,100489.97
2023-05-11T20:49:07.442Z,100489.56
2023-05-11T20:52:10.058Z,100494.19
2023-05-11T20:55:12.412Z,100498.69
2023-05-11T20:58:14.696Z,100496.66
2023-05-11T21:01:16.986Z,100500.00
2023-05-11T21:04:19.324Z,100501.59
2023-05-11T21:07:23.069Z,100494.84
2023-05-11T21:10:25.473Z,100500.22
2023-05-11T21:13:27.786Z,100495.38
2023-05-11T21:16:30.101Z,100480.13
2023-05-11T21:19:32.526Z,100495.47
2023-05-11T21:22:38.372Z,100486.88
2023-05-11T21:25:40.605Z,100496.34
2023-05-11T21:28:42.905Z,100499.56
2023-05-11T21:31:45.328Z,100504.81
2023-05-11T21:34:47.679Z,100502.25
2023-05-11T21:37:50.170Z,100511.16
2023-05-11T21:40:56.299Z,100512.19
2023-05-11T21:43:58.832Z,100500.03
2023-05-11T21:47:01.147Z,100503.78
2023-05-11T21:50:03.519Z,100508.34
2023-05-11T21:53:05.767Z,100505.56
2023-05-11T21:56:09.949Z,100509.97
2023-05-11T21:59:12.227Z,100505.91
2023-05-11T22:02:14.522Z,100509.41
2023-05-11T22:05:17.382Z,100491.25
2023-05-11T22:08:19.679Z,100507.59
2023-05-11T22:11:21.967Z,100512.25
2023-05-11T22:14:24.379Z,100510.84
2023-05-11T22:17:26.709Z,100509.50
2023-05-11T22:20:29.000Z,100504.34
2023-05-11T22:23:31.906Z,100506.31
2023-05-11T22:26:34.236Z,100520.84
2023-05-11T22:29:36.541Z,100522.84
2023-05-11T22:32:38.969Z,100520.69
2023-05-11T22:35:42.448Z,100519.19
2023-05-11T22:38:44.690Z,100514.88
2023-05-11T22:41:46.962Z,100520.25
2023-05-11T22:44:49.425Z,100520.50
2023-05-11T22:47:51.724Z,100512.25
2023-05-11T22:50:54.123Z,100524.75
2023-05-11T22:53:56.340Z,100527.63
2023-05-11T22:56:58.722Z,100530.19
2023-05-11T23:00:01.019Z,100531.97
2023-05-11T23:03:04.006Z,100515.34
2023-05-11T23:06:06.554Z,100523.81
2023-05-11T23:09:09.750Z,100521.72
2023-05-11T23:12:12.028Z,100527.25
2023-05-11T23:15:14.230Z,100512.50
2023-05-11T23:18:16.582Z,100530.19
2023-05-11T23:21:19.015Z,100519.03
2023-05-11T23:24:21.653Z,100519.03
2023-05-11T23:27:24.670Z,100518.59
2023-05-11T23:30:27.151Z,100515.91
2023-05-11T23:33:29.346Z,100519.63
2023-05-11T23:36:32.322Z,100517.13
2023-05-11T23:39:34.830Z,100513.31
2023-05-11T23:42:37.101Z,100500.41
2023-05-11T23:45:40.143Z,100514.63
2023-05-11T23:48:42.373Z,100505.13
2023-05-11T23:51:44.667Z,100515.03
2023-05-11T23:54:47.022Z,100509.88
2023-05-11T23:57:49.240Z,100506.47
